Time;durP1;ratioP1;P1;durP2;ratioP2;P2;SDS_P1;SDS_P2;PMS_P1;PMS_P2;Temp;Humidity;BMP_temperature;BMP_pressure;BME280_temperature;BME280_humidity;BME280_pressure;Samples;Min_cycle;Max_cycle;Signal;HPM_P1;HPM_P2
2023/12/28 00:02:07;;;;;;;2.83;2.20;;;9.00;99.90;;;;;;5044107;28;20474;-76
2023/12/28 00:04:34;;;;;;;2.33;2.13;;;8.90;99.90;;;;;;5040894;28;20441;-76
2023/12/28 00:07:00;;;;;;;2.70;1.90;;;8.80;99.90;;;;;;5042810;28;20208;-74
2023/12/28 00:09:26;;;;;;;2.77;2.50;;;8.90;99.90;;;;;;5043322;28;20436;-74
2023/12/28 00:11:51;;;;;;;2.70;2.33;;;8.90;99.90;;;;;;5043363;28;20536;-78
2023/12/28 00:14:17;;;;;;;3.20;2.10;;;8.80;99.90;;;;;;5047436;28;20182;-75
2023/12/28 00:16:43;;;;;;;3.50;2.33;;;8.80;99.90;;;;;;5044696;28;20210;-74
2023/12/28 00:19:08;;;;;;;2.30;2.00;;;8.80;99.90;;;;;;5046197;28;20255;-74
2023/12/28 00:21:34;;;;;;;3.00;2.27;;;8.80;99.90;;;;;;5040874;28;20257;-74
2023/12/28 00:24:00;;;;;;;4.47;2.33;;;8.80;99.90;;;;;;5043765;28;20192;-75
2023/12/28 00:26:25;;;;;;;2.77;2.40;;;8.80;99.90;;;;;;5043970;28;20201;-75
2023/12/28 00:28:51;;;;;;;3.00;2.03;;;8.80;99.90;;;;;;5043417;28;20198;-78
2023/12/28 00:31:17;;;;;;;2.77;2.50;;;8.80;99.90;;;;;;5044485;28;20269;-74
2023/12/28 00:33:42;;;;;;;4.37;2.60;;;8.80;99.90;;;;;;5042761;28;20206;-76
2023/12/28 00:36:08;;;;;;;2.60;2.40;;;8.80;99.90;;;;;;5043262;28;20259;-77
2023/12/28 00:38:34;;;;;;;2.97;2.67;;;8.80;99.90;;;;;;5044301;28;20186;-75
2023/12/28 00:40:59;;;;;;;2.50;2.30;;;8.80;99.90;;;;;;5047254;28;20190;-75
2023/12/28 00:43:25;;;;;;;4.73;2.63;;;8.70;99.90;;;;;;5044564;28;20190;-74
2023/12/28 00:45:51;;;;;;;2.60;2.37;;;8.80;99.90;;;;;;5050921;28;20182;-74
2023/12/28 00:48:16;;;;;;;2.50;2.30;;;8.80;99.90;;;;;;5054543;28;20294;-74
2023/12/28 00:50:42;;;;;;;3.00;2.70;;;8.80;99.90;;;;;;5049866;28;20186;-73
2023/12/28 00:53:08;;;;;;;2.80;2.43;;;8.80;99.90;;;;;;5053064;28;20188;-74
2023/12/28 00:55:33;;;;;;;4.43;2.47;;;8.80;99.90;;;;;;5062931;28;20224;-74
2023/12/28 00:57:59;;;;;;;4.00;2.63;;;8.80;99.90;;;;;;5053715;28;20200;-74
2023/12/28 01:00:24;;;;;;;3.23;2.27;;;8.80;99.90;;;;;;5054313;28;20247;-73
2023/12/28 01:02:51;;;;;;;5.13;2.23;;;8.80;99.90;;;;;;5046150;28;20571;-77
2023/12/28 01:05:17;;;;;;;4.20;2.77;;;8.80;99.90;;;;;;5076533;28;20189;-77
2023/12/28 01:07:43;;;;;;;2.23;2.03;;;8.80;99.90;;;;;;5043853;28;20839;-75
2023/12/28 01:10:08;;;;;;;2.60;2.03;;;8.90;99.90;;;;;;5041425;28;20444;-76
2023/12/28 01:12:34;;;;;;;3.07;2.60;;;8.90;99.90;;;;;;5044022;28;20178;-77
2023/12/28 01:15:00;;;;;;;3.50;2.60;;;8.90;99.90;;;;;;5043372;28;20443;-77
2023/12/28 01:17:25;;;;;;;4.67;2.20;;;8.90;99.90;;;;;;5043843;28;20228;-75
2023/12/28 01:19:51;;;;;;;5.00;2.20;;;8.90;99.90;;;;;;5043041;28;20841;-76
2023/12/28 01:22:17;;;;;;;3.07;2.37;;;9.00;99.90;;;;;;5051655;28;20189;-75
2023/12/28 01:24:46;;;;;;;2.50;2.30;;;9.00;99.90;;;;;;5042902;28;20640;-76
2023/12/28 01:27:12;;;;;;;3.77;2.40;;;9.00;99.90;;;;;;5044037;28;20563;-74
2023/12/28 01:29:38;;;;;;;3.83;2.73;;;9.00;99.90;;;;;;5043580;28;20416;-78
2023/12/28 01:32:04;;;;;;;3.30;2.27;;;9.00;99.90;;;;;;5043207;28;20201;-78
2023/12/28 01:34:30;;;;;;;2.77;2.43;;;9.00;99.90;;;;;;5042843;28;20201;-75
2023/12/28 01:36:55;;;;;;;3.50;2.47;;;9.10;99.90;;;;;;5046752;28;20537;-75
2023/12/28 01:39:21;;;;;;;2.57;2.23;;;9.10;99.90;;;;;;5044334;28;20182;-76
2023/12/28 01:41:46;;;;;;;2.80;2.50;;;9.10;99.90;;;;;;5035353;28;20268;-76
2023/12/28 01:44:12;;;;;;;3.50;2.10;;;9.20;99.90;;;;;;5045030;28;20186;-75
2023/12/28 01:46:39;;;;;;;3.00;2.50;;;9.20;99.90;;;;;;5034563;28;20182;-75
2023/12/28 01:49:05;;;;;;;2.43;2.23;;;9.20;99.90;;;;;;5046737;28;20200;-77
2023/12/28 01:51:31;;;;;;;2.80;2.07;;;9.20;99.90;;;;;;5053756;28;20428;-74
2023/12/28 01:53:57;;;;;;;2.90;2.37;;;9.20;99.90;;;;;;5054003;28;20989;-75
2023/12/28 01:56:24;;;;;;;3.97;2.60;;;9.20;99.90;;;;;;5051775;28;20492;-75
2023/12/28 01:58:52;;;;;;;2.30;2.10;;;9.30;99.90;;;;;;5050494;28;20439;-75
2023/12/28 02:01:18;;;;;;;3.30;2.03;;;9.30;99.90;;;;;;5052382;28;20448;-76
2023/12/28 02:03:45;;;;;;;6.73;2.50;;;9.30;99.90;;;;;;5052180;28;20927;-74
2023/12/28 02:06:12;;;;;;;3.80;2.47;;;9.30;99.90;;;;;;5047954;28;20523;-75
2023/12/28 02:08:37;;;;;;;3.37;2.37;;;9.40;99.90;;;;;;5040956;28;20421;-74
2023/12/28 02:11:04;;;;;;;3.20;2.53;;;9.40;99.90;;;;;;5043216;28;20432;-78
2023/12/28 02:13:29;;;;;;;3.27;2.70;;;9.40;99.90;;;;;;5040024;28;20194;-78
2023/12/28 02:16:06;;;;;;;2.60;2.40;;;9.40;99.90;;;;;;5042891;28;21294;-76
2023/12/28 02:18:47;;;;;;;4.47;2.97;;;9.40;99.90;;;;;;5041429;28;20439;-75
2023/12/28 02:21:15;;;;;;;3.30;3.00;;;9.40;99.90;;;;;;5042989;28;20428;-77
2023/12/28 02:23:47;;;;;;;3.73;2.97;;;9.40;99.90;;;;;;5040808;28;20503;-75
2023/12/28 02:26:12;;;;;;;2.97;2.40;;;9.40;99.90;;;;;;5039549;28;20444;-75
2023/12/28 02:28:38;;;;;;;2.90;2.53;;;9.40;99.90;;;;;;5033541;28;20428;-79
2023/12/28 02:31:06;;;;;;;3.57;2.97;;;9.40;99.90;;;;;;5042672;28;20189;-76
2023/12/28 02:33:48;;;;;;;4.50;3.17;;;9.40;99.90;;;;;;5033053;28;20215;-76
2023/12/28 02:36:21;;;;;;;4.80;2.80;;;9.50;99.90;;;;;;5041599;28;20464;-76
2023/12/28 02:38:48;;;;;;;3.30;2.93;;;9.50;99.90;;;;;;5049082;28;20427;-77
2023/12/28 02:41:15;;;;;;;2.60;2.23;;;9.50;99.90;;;;;;5039907;28;21174;-78
2023/12/28 02:43:41;;;;;;;2.40;2.20;;;9.50;99.90;;;;;;5040578;28;20440;-74
2023/12/28 02:46:07;;;;;;;2.83;2.50;;;9.50;99.90;;;;;;5042691;28;20473;-79
2023/12/28 02:48:32;;;;;;;2.93;2.63;;;9.50;99.90;;;;;;5040354;28;20197;-79
2023/12/28 02:50:58;;;;;;;2.57;2.37;;;9.50;99.90;;;;;;5042681;28;20211;-81
2023/12/28 02:53:24;;;;;;;3.97;2.93;;;9.50;99.90;;;;;;5043461;28;20257;-74
2023/12/28 02:55:49;;;;;;;2.80;2.50;;;9.50;99.90;;;;;;5042787;28;20221;-75
2023/12/28 02:58:15;;;;;;;4.90;2.73;;;9.60;99.90;;;;;;5041495;28;20687;-77
2023/12/28 03:00:40;;;;;;;3.10;2.50;;;9.60;99.90;;;;;;5041797;28;20174;-75
2023/12/28 03:03:06;;;;;;;4.90;2.80;;;9.60;99.90;;;;;;5042863;28;20250;-77
2023/12/28 03:05:32;;;;;;;3.33;2.70;;;9.60;99.90;;;;;;5040560;28;20188;-77
2023/12/28 03:07:58;;;;;;;2.67;2.30;;;9.60;99.90;;;;;;5043626;28;20238;-77
2023/12/28 03:10:24;;;;;;;3.10;2.60;;;9.60;99.90;;;;;;5038583;28;20248;-76
2023/12/28 03:12:49;;;;;;;2.20;2.00;;;9.50;99.90;;;;;;5041369;28;20455;-77
2023/12/28 03:15:15;;;;;;;3.37;2.80;;;9.50;99.90;;;;;;5040973;28;21056;-75
2023/12/28 03:17:41;;;;;;;2.53;2.33;;;9.60;99.90;;;;;;5041148;28;20273;-76
2023/12/28 03:20:07;;;;;;;3.00;2.67;;;9.60;99.90;;;;;;5042381;28;20464;-74
2023/12/28 03:22:33;;;;;;;3.90;2.30;;;9.50;99.90;;;;;;5041591;28;20189;-76
2023/12/28 03:24:59;;;;;;;4.70;2.83;;;9.50;99.90;;;;;;5042697;28;20498;-77
2023/12/28 03:27:24;;;;;;;2.50;2.30;;;9.50;99.90;;;;;;5045538;28;20270;-77
2023/12/28 03:29:50;;;;;;;4.20;2.73;;;9.60;99.90;;;;;;5077195;28;20536;-77
2023/12/28 03:32:16;;;;;;;4.27;2.60;;;9.60;99.90;;;;;;5046012;28;20268;-79
2023/12/28 03:34:41;;;;;;;4.47;2.57;;;9.60;99.90;;;;;;5042905;28;20206;-77
2023/12/28 03:37:07;;;;;;;3.83;3.03;;;9.60;99.90;;;;;;5045873;28;20640;-74
2023/12/28 03:39:33;;;;;;;4.00;2.70;;;9.60;99.90;;;;;;5043144;28;20687;-76
2023/12/28 03:41:59;;;;;;;3.40;2.67;;;9.60;99.90;;;;;;5045508;28;20178;-76
2023/12/28 03:44:25;;;;;;;2.80;2.50;;;9.60;99.90;;;;;;5045531;28;20428;-76
2023/12/28 03:46:52;;;;;;;2.90;2.60;;;9.60;99.90;;;;;;5053492;28;20190;-76
2023/12/28 03:49:18;;;;;;;3.30;3.00;;;9.70;99.90;;;;;;5045490;28;20193;-79
2023/12/28 03:51:45;;;;;;;3.77;2.80;;;9.70;99.90;;;;;;5044313;28;20440;-76
2023/12/28 03:54:11;;;;;;;3.47;2.50;;;9.60;99.90;;;;;;5043897;28;20441;-76
2023/12/28 03:56:39;;;;;;;3.40;2.90;;;9.70;99.90;;;;;;5042783;28;20809;-78
2023/12/28 03:59:06;;;;;;;6.60;3.07;;;9.70;99.90;;;;;;5045420;28;20437;-76
2023/12/28 04:01:31;;;;;;;2.83;2.50;;;9.70;99.90;;;;;;5042801;28;20486;-76
2023/12/28 04:03:57;;;;;;;3.37;3.07;;;9.70;99.90;;;;;;5045266;28;20460;-76
2023/12/28 04:06:22;;;;;;;4.00;2.73;;;9.70;99.90;;;;;;5045089;28;20224;-74
2023/12/28 04:08:48;;;;;;;3.63;2.40;;;9.70;99.90;;;;;;5044741;28;20187;-76
2023/12/28 04:11:14;;;;;;;3.23;2.50;;;9.80;99.90;;;;;;5042084;28;20174;-78
2023/12/28 04:13:40;;;;;;;3.83;2.50;;;9.80;99.90;;;;;;5042890;28;20439;-77
2023/12/28 04:16:06;;;;;;;4.13;2.87;;;9.80;99.90;;;;;;5044456;28;20211;-74
2023/12/28 04:18:32;;;;;;;2.43;2.23;;;9.80;99.90;;;;;;5043089;28;20181;-73
2023/12/28 04:20:58;;;;;;;2.77;2.20;;;9.70;99.90;;;;;;5045083;28;20436;-78
2023/12/28 04:23:24;;;;;;;3.67;2.63;;;9.80;99.90;;;;;;5045240;28;20440;-75
2023/12/28 04:25:49;;;;;;;2.90;2.47;;;9.80;99.90;;;;;;5043863;28;20270;-75
2023/12/28 04:28:15;;;;;;;3.10;2.13;;;9.80;99.90;;;;;;5036250;28;20316;-76
2023/12/28 04:30:41;;;;;;;3.80;2.40;;;9.80;99.90;;;;;;5042190;28;20273;-75
2023/12/28 04:33:06;;;;;;;4.13;2.73;;;9.70;99.90;;;;;;5044439;28;20198;-78
2023/12/28 04:35:32;;;;;;;3.70;2.30;;;9.80;99.90;;;;;;5040308;28;20224;-74
2023/12/28 04:37:58;;;;;;;4.83;2.20;;;9.80;99.90;;;;;;5045182;28;20188;-81
2023/12/28 04:40:23;;;;;;;5.10;2.07;;;9.80;99.90;;;;;;5044383;28;20213;-76
2023/12/28 04:42:49;;;;;;;1.83;1.70;;;9.80;99.90;;;;;;5041177;28;20535;-75
2023/12/28 04:45:15;;;;;;;6.03;2.03;;;9.80;99.90;;;;;;5044706;28;20264;-76
2023/12/28 04:47:41;;;;;;;2.83;2.00;;;9.80;99.90;;;;;;5040699;28;20190;-76
2023/12/28 04:50:07;;;;;;;3.30;2.20;;;9.80;99.90;;;;;;5036955;28;20439;-77
2023/12/28 04:52:33;;;;;;;2.53;1.77;;;9.80;99.90;;;;;;5041785;28;20219;-78
2023/12/28 04:54:58;;;;;;;3.10;1.90;;;9.80;99.90;;;;;;5045285;28;20425;-77
2023/12/28 04:57:25;;;;;;;2.63;2.20;;;9.80;99.90;;;;;;5040070;28;20400;-77
2023/12/28 04:59:51;;;;;;;1.97;1.87;;;9.80;99.90;;;;;;5043963;28;20193;-79
2023/12/28 05:02:17;;;;;;;2.10;1.90;;;9.80;99.90;;;;;;5044090;28;20432;-74
2023/12/28 05:04:42;;;;;;;2.63;1.87;;;9.80;99.90;;;;;;5042355;28;21269;-74
2023/12/28 05:07:08;;;;;;;2.17;1.70;;;9.80;99.90;;;;;;5044407;28;20177;-75
2023/12/28 05:09:34;;;;;;;2.10;1.90;;;9.80;99.90;;;;;;5042657;28;20281;-77
2023/12/28 05:12:00;;;;;;;3.10;2.57;;;9.90;99.90;;;;;;5044295;28;20190;-77
2023/12/28 05:14:25;;;;;;;2.23;1.60;;;9.80;99.90;;;;;;5043072;28;20225;-78
2023/12/28 05:16:51;;;;;;;2.40;1.70;;;9.90;99.90;;;;;;5040898;28;20217;-74
2023/12/28 05:19:17;;;;;;;4.40;2.07;;;9.90;99.90;;;;;;5035861;28;20552;-76
2023/12/28 05:21:43;;;;;;;2.60;1.90;;;9.90;99.90;;;;;;5041655;28;20186;-76
2023/12/28 05:24:08;;;;;;;2.77;1.70;;;9.90;99.90;;;;;;5044390;28;20723;-74
2023/12/28 05:26:34;;;;;;;3.00;2.43;;;9.90;99.90;;;;;;5042253;28;20185;-76
2023/12/28 05:29:00;;;;;;;2.30;1.90;;;9.90;99.90;;;;;;5044438;28;20877;-81
2023/12/28 05:31:26;;;;;;;2.07;1.90;;;9.90;99.90;;;;;;5042647;28;20412;-75
2023/12/28 05:33:51;;;;;;;3.10;2.80;;;9.90;99.90;;;;;;5043139;28;20472;-77
2023/12/28 05:36:17;;;;;;;6.03;1.77;;;9.90;99.90;;;;;;5044222;28;20965;-75
2023/12/28 05:38:43;;;;;;;2.20;1.80;;;9.90;99.90;;;;;;5042945;28;20671;-77
2023/12/28 05:41:11;;;;;;;3.70;1.60;;;9.90;99.90;;;;;;5043860;28;20184;-79
2023/12/28 05:43:38;;;;;;;2.97;1.87;;;9.90;99.90;;;;;;5041027;28;20181;-80
2023/12/28 05:46:04;;;;;;;4.37;2.00;;;9.90;99.90;;;;;;5042648;28;20439;-77
2023/12/28 05:48:30;;;;;;;2.60;1.90;;;9.90;99.90;;;;;;5040391;28;20478;-77
2023/12/28 05:50:58;;;;;;;3.43;2.50;;;9.90;99.90;;;;;;5052471;28;20429;-76
2023/12/28 05:53:24;;;;;;;2.80;1.93;;;9.90;99.90;;;;;;5041999;28;20209;-76
2023/12/28 05:55:50;;;;;;;4.50;2.00;;;9.90;99.90;;;;;;5040820;28;20473;-79
2023/12/28 05:58:15;;;;;;;5.73;2.50;;;9.90;99.90;;;;;;5041614;28;20436;-73
2023/12/28 06:00:42;;;;;;;2.77;1.73;;;9.90;99.90;;;;;;5041802;28;20178;-78
2023/12/28 06:03:07;;;;;;;2.60;2.40;;;9.90;99.90;;;;;;5042489;28;20182;-77
2023/12/28 06:05:33;;;;;;;2.37;1.70;;;9.90;99.90;;;;;;5039277;28;20442;-75
2023/12/28 06:07:59;;;;;;;3.43;1.63;;;9.90;99.90;;;;;;5035161;28;20809;-77
2023/12/28 06:10:24;;;;;;;2.73;1.90;;;9.90;99.90;;;;;;5042396;28;20200;-74
2023/12/28 06:12:50;;;;;;;4.90;2.30;;;9.90;99.90;;;;;;5042936;28;20186;-77
2023/12/28 06:15:16;;;;;;;3.23;1.80;;;9.90;99.90;;;;;;5042870;28;20188;-73
2023/12/28 06:17:42;;;;;;;3.33;1.70;;;9.90;99.90;;;;;;5039297;28;20196;-78
2023/12/28 06:20:09;;;;;;;3.40;1.80;;;9.90;99.90;;;;;;5043397;28;20181;-75
2023/12/28 06:22:38;;;;;;;2.30;1.83;;;9.90;99.90;;;;;;5041108;28;20424;-77
2023/12/28 06:25:04;;;;;;;2.83;1.90;;;9.90;99.90;;;;;;5040505;28;20439;-79
2023/12/28 06:27:30;;;;;;;2.50;2.13;;;9.90;99.90;;;;;;5040511;28;20497;-74
2023/12/28 06:29:56;;;;;;;3.70;1.63;;;9.90;99.90;;;;;;5036352;28;20922;-78
2023/12/28 06:32:22;;;;;;;4.20;2.30;;;9.90;99.90;;;;;;5040547;28;20412;-79
2023/12/28 06:34:48;;;;;;;2.93;1.90;;;10.00;99.90;;;;;;5041436;28;20202;-75
2023/12/28 06:37:14;;;;;;;3.97;2.60;;;9.90;99.90;;;;;;5041432;28;20819;-74
2023/12/28 06:39:40;;;;;;;3.10;1.87;;;9.90;99.90;;;;;;5033380;28;20421;-77
2023/12/28 06:42:06;;;;;;;4.00;2.00;;;9.90;99.90;;;;;;5042999;28;20963;-80
2023/12/28 06:44:32;;;;;;;4.80;1.90;;;9.90;99.90;;;;;;5039201;28;20727;-75
2023/12/28 06:46:58;;;;;;;2.87;1.93;;;9.90;99.90;;;;;;5040476;28;20428;-74
2023/12/28 06:49:24;;;;;;;2.03;1.60;;;9.90;99.90;;;;;;5042682;28;20765;-74
2023/12/28 06:51:50;;;;;;;3.47;1.73;;;9.90;99.90;;;;;;5041772;28;20982;-78
2023/12/28 06:54:16;;;;;;;5.00;2.20;;;9.90;99.90;;;;;;5041909;28;20420;-74
2023/12/28 06:56:42;;;;;;;2.90;1.50;;;9.90;99.90;;;;;;5041079;28;21491;-74
2023/12/28 06:59:12;;;;;;;2.87;2.67;;;9.90;99.90;;;;;;5040789;28;20209;-77
2023/12/28 07:01:41;;;;;;;3.00;1.90;;;9.90;99.90;;;;;;5038327;28;20428;-76
2023/12/28 07:04:07;;;;;;;2.57;1.90;;;9.90;99.90;;;;;;5042248;28;20769;-75
2023/12/28 07:06:32;;;;;;;2.10;1.90;;;9.90;99.90;;;;;;5029932;28;20433;-78
2023/12/28 07:08:58;;;;;;;4.07;2.40;;;9.90;99.90;;;;;;5036017;28;20934;-76
2023/12/28 07:11:24;;;;;;;2.80;1.97;;;9.80;99.90;;;;;;5038426;28;20177;-78
2023/12/28 07:13:50;;;;;;;3.93;1.87;;;9.80;99.90;;;;;;5031605;28;20213;-78
2023/12/28 07:16:15;;;;;;;3.13;1.90;;;9.80;99.90;;;;;;5035018;28;20210;-74
2023/12/28 07:18:41;;;;;;;2.50;1.87;;;9.80;99.90;;;;;;5035458;28;20657;-76
2023/12/28 07:21:09;;;;;;;2.43;1.50;;;9.80;99.90;;;;;;5041031;28;20186;-73
2023/12/28 07:23:35;;;;;;;4.93;2.23;;;9.80;99.90;;;;;;5039116;28;20436;-74
2023/12/28 07:26:01;;;;;;;5.43;2.20;;;9.80;99.90;;;;;;5038018;28;20417;-74
2023/12/28 07:28:27;;;;;;;5.10;1.80;;;9.90;99.90;;;;;;5040261;28;21376;-77
2023/12/28 07:30:54;;;;;;;2.37;1.70;;;9.80;99.90;;;;;;5034102;28;20429;-74
2023/12/28 07:33:20;;;;;;;3.67;2.13;;;9.80;99.90;;;;;;5038995;28;20271;-76
2023/12/28 07:35:46;;;;;;;3.33;1.77;;;9.80;99.90;;;;;;5039723;28;20465;-75
2023/12/28 07:38:12;;;;;;;4.20;2.40;;;9.80;99.90;;;;;;5041763;28;20440;-73
2023/12/28 07:40:37;;;;;;;3.97;2.17;;;9.80;99.90;;;;;;5040442;28;20429;-77
2023/12/28 07:43:03;;;;;;;5.03;2.13;;;9.80;99.90;;;;;;5041770;28;20213;-73
2023/12/28 07:45:29;;;;;;;5.43;1.97;;;9.80;99.90;;;;;;5040138;28;21000;-75
2023/12/28 07:47:55;;;;;;;4.70;2.50;;;9.80;99.90;;;;;;5040002;28;20429;-78
2023/12/28 07:50:21;;;;;;;3.57;1.87;;;9.80;99.90;;;;;;5040253;28;20280;-75
2023/12/28 07:52:47;;;;;;;3.37;1.87;;;9.80;99.90;;;;;;5038876;28;20184;-78
2023/12/28 07:55:14;;;;;;;2.97;1.83;;;9.80;99.90;;;;;;5030120;28;20193;-77
2023/12/28 07:57:40;;;;;;;3.70;2.20;;;9.80;99.90;;;;;;5037121;28;20472;-76
2023/12/28 08:00:08;;;;;;;4.33;2.03;;;9.80;99.90;;;;;;5032695;28;20432;-76
2023/12/28 08:02:34;;;;;;;8.40;2.57;;;9.80;99.90;;;;;;5042537;28;20562;-76
2023/12/28 08:04:59;;;;;;;3.07;2.03;;;9.90;99.90;;;;;;5035603;28;20892;-76
2023/12/28 08:07:25;;;;;;;6.17;2.23;;;9.90;99.90;;;;;;5039162;28;20186;-73
2023/12/28 08:09:51;;;;;;;8.77;2.20;;;9.90;99.90;;;;;;5037981;28;20208;-77
2023/12/28 08:12:21;;;;;;;4.37;1.90;;;9.90;99.90;;;;;;5041881;28;20192;-78
2023/12/28 08:14:46;;;;;;;3.20;1.73;;;9.90;99.90;;;;;;5043142;28;20178;-74
2023/12/28 08:17:12;;;;;;;3.83;2.27;;;10.00;99.90;;;;;;5044290;28;20469;-75
2023/12/28 08:19:38;;;;;;;3.70;1.77;;;9.90;99.90;;;;;;5043927;28;20420;-80
2023/12/28 08:22:04;;;;;;;5.90;1.80;;;9.90;99.90;;;;;;5075120;28;20190;-76
2023/12/28 08:24:29;;;;;;;5.20;1.90;;;10.00;99.90;;;;;;5033317;28;20201;-73
2023/12/28 08:26:59;;;;;;;5.17;2.10;;;10.00;99.90;;;;;;5041240;28;20178;-76
2023/12/28 08:29:25;;;;;;;5.00;2.33;;;9.90;99.90;;;;;;5041799;28;20186;-76
2023/12/28 08:31:51;;;;;;;2.40;1.97;;;10.00;99.90;;;;;;5044053;28;20685;-75
2023/12/28 08:34:16;;;;;;;5.23;2.17;;;10.00;99.90;;;;;;5044059;28;20561;-76
2023/12/28 08:36:42;;;;;;;1.90;1.70;;;10.00;99.90;;;;;;5032900;28;20648;-77
2023/12/28 08:39:08;;;;;;;3.27;1.83;;;10.00;99.90;;;;;;5042214;28;20196;-76
2023/12/28 08:41:33;;;;;;;4.10;1.83;;;10.00;99.90;;;;;;5042653;28;20695;-76
2023/12/28 08:43:59;;;;;;;7.83;2.10;;;10.00;99.90;;;;;;5041895;28;20177;-76
2023/12/28 08:46:25;;;;;;;4.30;2.33;;;10.00;99.90;;;;;;5040456;28;20652;-78
2023/12/28 08:48:51;;;;;;;4.80;1.90;;;10.00;99.90;;;;;;5044320;28;20289;-73
2023/12/28 08:51:17;;;;;;;5.37;2.03;;;10.00;99.90;;;;;;5043339;28;20726;-74
2023/12/28 08:53:42;;;;;;;5.47;2.60;;;10.00;99.90;;;;;;5041973;28;20449;-76
2023/12/28 08:56:19;;;;;;;5.93;2.00;;;10.00;99.90;;;;;;5042611;28;20231;-75
2023/12/28 08:58:49;;;;;;;3.70;1.97;;;10.10;99.90;;;;;;5049244;28;20178;-78
2023/12/28 09:01:17;;;;;;;3.00;1.80;;;10.10;99.90;;;;;;5035185;28;20424;-76
2023/12/28 09:03:43;;;;;;;6.47;2.50;;;10.10;99.90;;;;;;5041734;28;20433;-73
2023/12/28 09:06:09;;;;;;;3.40;1.70;;;10.10;99.90;;;;;;5039754;28;20800;-76
2023/12/28 09:08:34;;;;;;;4.50;1.90;;;10.10;99.90;;;;;;5048748;28;20188;-74
2023/12/28 09:11:00;;;;;;;4.10;2.43;;;10.10;99.90;;;;;;5040349;28;20212;-76
2023/12/28 09:13:26;;;;;;;3.10;1.57;;;10.10;99.90;;;;;;5043067;28;20431;-74
2023/12/28 09:15:51;;;;;;;4.57;2.10;;;10.10;99.90;;;;;;5033827;28;20210;-73
2023/12/28 09:18:17;;;;;;;4.77;2.00;;;10.10;99.90;;;;;;5048166;28;20187;-73
2023/12/28 09:20:43;;;;;;;3.17;2.10;;;10.10;99.90;;;;;;5041786;28;20178;-77
2023/12/28 09:23:10;;;;;;;3.80;2.33;;;10.10;99.90;;;;;;5042388;28;20235;-77
2023/12/28 09:25:38;;;;;;;5.00;2.00;;;10.10;99.90;;;;;;5041332;28;20436;-76
2023/12/28 09:28:05;;;;;;;3.47;1.80;;;10.10;99.90;;;;;;5041737;28;20441;-77
2023/12/28 09:30:31;;;;;;;6.27;1.90;;;10.10;99.90;;;;;;5074242;28;21146;-77
2023/12/28 09:32:56;;;;;;;7.20;2.77;;;10.10;99.90;;;;;;5051303;28;20471;-76
2023/12/28 09:35:22;;;;;;;4.80;2.30;;;10.20;99.90;;;;;;5048251;28;20519;-74
2023/12/28 09:37:48;;;;;;;8.30;2.07;;;10.20;99.90;;;;;;5048501;28;20946;-75
2023/12/28 09:40:15;;;;;;;4.13;2.10;;;10.10;99.90;;;;;;5048679;28;20824;-72
2023/12/28 09:43:05;;;;;;;3.83;1.83;;;10.20;99.90;;;;;;5049425;28;20424;-75
2023/12/28 09:45:31;;;;;;;3.60;1.80;;;10.20;99.90;;;;;;5045637;28;20444;-74
2023/12/28 09:47:56;;;;;;;3.63;1.80;;;10.20;99.90;;;;;;5045175;28;20421;-78
2023/12/28 09:50:26;;;;;;;4.53;1.70;;;10.20;99.90;;;;;;5043079;28;20192;-74
2023/12/28 09:52:53;;;;;;;4.47;2.13;;;10.20;99.90;;;;;;5042845;28;20863;-77
2023/12/28 09:55:18;;;;;;;5.03;2.10;;;10.20;99.90;;;;;;5033372;28;20441;-74
2023/12/28 09:57:45;;;;;;;5.70;2.40;;;10.20;99.90;;;;;;5046073;28;20500;-72
2023/12/28 10:00:12;;;;;;;4.70;2.33;;;10.20;99.90;;;;;;5039903;28;20544;-71
2023/12/28 10:02:40;;;;;;;4.73;1.90;;;10.20;99.90;;;;;;5040381;28;20442;-71
2023/12/28 10:05:07;;;;;;;10.33;2.97;;;10.20;99.90;;;;;;5031528;28;20431;-74
2023/12/28 10:07:32;;;;;;;4.23;2.30;;;10.20;99.90;;;;;;5040153;28;20785;-73
2023/12/28 10:09:58;;;;;;;7.10;2.20;;;10.30;99.90;;;;;;5041479;28;20436;-73
2023/12/28 10:12:27;;;;;;;5.27;2.47;;;10.20;99.90;;;;;;5041591;28;20186;-72
2023/12/28 10:14:53;;;;;;;3.33;1.90;;;10.20;99.90;;;;;;5041429;28;20181;-74
2023/12/28 10:17:19;;;;;;;3.20;2.10;;;10.20;99.90;;;;;;5040997;28;21073;-73
2023/12/28 10:19:47;;;;;;;6.00;2.50;;;10.30;99.90;;;;;;5039705;28;20425;-71
2023/12/28 10:22:13;;;;;;;4.00;1.50;;;10.30;99.90;;;;;;5040680;28;20441;-71
2023/12/28 10:24:44;;;;;;;4.23;2.07;;;10.30;99.90;;;;;;5040950;28;20818;-72
2023/12/28 10:27:09;;;;;;;5.97;2.40;;;10.30;99.90;;;;;;5040438;28;21755;-72
2023/12/28 10:29:36;;;;;;;6.80;2.30;;;10.30;99.90;;;;;;5048825;28;20459;-74
2023/12/28 10:32:02;;;;;;;3.30;1.73;;;10.30;99.90;;;;;;5040615;28;20184;-73
2023/12/28 10:34:27;;;;;;;4.00;1.90;;;10.40;99.90;;;;;;5040260;28;20805;-71
2023/12/28 10:36:53;;;;;;;4.70;1.60;;;10.50;99.90;;;;;;5040724;28;20472;-72
2023/12/28 10:39:21;;;;;;;6.63;2.10;;;10.50;99.90;;;;;;5041141;28;20177;-72
2023/12/28 10:41:49;;;;;;;7.20;2.10;;;10.60;99.90;;;;;;5039640;28;20406;-74
2023/12/28 10:44:20;;;;;;;3.73;1.70;;;10.70;99.90;;;;;;5041081;28;20425;-73
2023/12/28 10:46:51;;;;;;;4.90;1.87;;;10.70;99.90;;;;;;5040622;28;20838;-71
2023/12/28 10:49:18;;;;;;;8.70;2.17;;;10.80;99.90;;;;;;5039491;28;20424;-73
2023/12/28 10:51:45;;;;;;;7.20;1.70;;;10.80;99.90;;;;;;5040225;28;21118;-72
2023/12/28 10:54:23;;;;;;;8.77;2.07;;;10.80;99.90;;;;;;5038951;28;20424;-71
2023/12/28 10:57:11;;;;;;;3.63;1.90;;;10.80;99.90;;;;;;5039485;28;20568;-72
2023/12/28 11:00:17;;;;;;;6.40;2.23;;;10.70;99.90;;;;;;5039358;28;20431;-72
2023/12/28 11:02:46;;;;;;;3.97;2.07;;;10.70;99.90;;;;;;5024179;28;20442;-70
2023/12/28 11:05:17;;;;;;;5.43;2.40;;;10.70;99.90;;;;;;5038317;28;20424;-70
2023/12/28 11:07:43;;;;;;;4.60;1.60;;;10.70;99.90;;;;;;5039172;28;20910;-73
2023/12/28 11:10:10;;;;;;;5.40;2.50;;;10.70;99.90;;;;;;5039546;28;20433;-70
2023/12/28 11:12:37;;;;;;;3.90;1.80;;;10.70;99.90;;;;;;5038344;28;20440;-70
2023/12/28 11:15:05;;;;;;;5.63;1.70;;;10.70;99.90;;;;;;5039312;28;20424;-72
2023/12/28 11:17:31;;;;;;;6.47;2.10;;;10.70;99.90;;;;;;5038039;28;20464;-73
2023/12/28 11:19:58;;;;;;;5.10;2.70;;;10.70;99.90;;;;;;5039788;28;20477;-70
2023/12/28 11:22:25;;;;;;;3.30;1.80;;;10.80;99.90;;;;;;5040170;28;20439;-73
2023/12/28 11:24:54;;;;;;;5.50;2.10;;;10.90;99.90;;;;;;5039675;28;20448;-71
2023/12/28 11:27:20;;;;;;;3.27;1.60;;;10.80;99.90;;;;;;5040253;28;20433;-70
2023/12/28 11:29:48;;;;;;;3.37;1.60;;;10.80;99.90;;;;;;5038806;28;20439;-71
2023/12/28 11:32:14;;;;;;;5.87;2.10;;;10.90;99.90;;;;;;5039271;28;20427;-72
2023/12/28 11:34:40;;;;;;;8.50;2.13;;;10.80;99.90;;;;;;5040145;28;20444;-72
2023/12/28 11:37:14;;;;;;;9.43;2.30;;;10.80;99.90;;;;;;5039530;28;21205;-69
2023/12/28 11:39:44;;;;;;;7.60;1.93;;;10.80;99.90;;;;;;5040505;28;20511;-72
2023/12/28 11:42:10;;;;;;;4.30;1.80;;;10.80;99.90;;;;;;5039545;28;20427;-73
2023/12/28 11:44:43;;;;;;;11.07;2.37;;;10.90;99.90;;;;;;5039319;28;20425;-70
2023/12/28 11:47:13;;;;;;;6.23;1.70;;;11.00;99.90;;;;;;5042728;28;21223;-71
2023/12/28 11:49:42;;;;;;;6.77;2.20;;;11.00;99.90;;;;;;5043213;28;20955;-72
2023/12/28 11:52:10;;;;;;;6.10;1.53;;;11.20;99.90;;;;;;5042101;28;20645;-70
2023/12/28 11:54:35;;;;;;;4.90;1.70;;;11.20;99.90;;;;;;5042407;28;20523;-70
2023/12/28 11:57:01;;;;;;;5.37;1.40;;;11.20;99.90;;;;;;5041254;28;20470;-72
2023/12/28 11:59:27;;;;;;;5.50;2.27;;;11.30;99.90;;;;;;5044201;28;20189;-72
2023/12/28 12:01:53;;;;;;;3.53;1.70;;;11.30;99.90;;;;;;5042987;28;20215;-70
2023/12/28 12:04:20;;;;;;;4.57;1.67;;;11.20;99.90;;;;;;5043248;28;20185;-70
2023/12/28 12:06:46;;;;;;;5.97;1.80;;;11.20;99.90;;;;;;5042865;28;20528;-71
2023/12/28 12:09:13;;;;;;;2.43;1.40;;;11.20;99.90;;;;;;5042382;28;20447;-70
2023/12/28 12:11:38;;;;;;;3.23;1.40;;;11.10;99.90;;;;;;5043316;28;20485;-71
2023/12/28 12:14:09;;;;;;;7.83;2.33;;;11.10;99.90;;;;;;5041096;28;20966;-69
2023/12/28 12:16:36;;;;;;;4.43;1.67;;;11.10;99.90;;;;;;5042631;28;20224;-72
2023/12/28 12:19:06;;;;;;;4.50;2.07;;;11.10;99.90;;;;;;5041522;28;20439;-70
2023/12/28 12:21:36;;;;;;;8.87;2.23;;;11.10;99.90;;;;;;5042253;28;21269;-72
2023/12/28 12:24:02;;;;;;;8.63;2.10;;;11.10;99.90;;;;;;5041334;28;21016;-72
2023/12/28 12:26:31;;;;;;;2.90;1.70;;;11.10;99.90;;;;;;5044063;28;20793;-72
2023/12/28 12:28:57;;;;;;;4.70;1.50;;;11.10;99.90;;;;;;5042782;28;20427;-71
2023/12/28 12:31:26;;;;;;;6.10;1.97;;;11.10;99.90;;;;;;5043880;28;20432;-72
2023/12/28 12:33:52;;;;;;;3.53;1.80;;;11.10;99.90;;;;;;5042810;28;20459;-72
2023/12/28 12:36:17;;;;;;;5.10;1.60;;;11.10;99.90;;;;;;5043515;28;20464;-72
2023/12/28 12:38:43;;;;;;;7.47;1.60;;;11.20;99.90;;;;;;5042349;28;20181;-72
2023/12/28 12:41:11;;;;;;;6.23;1.80;;;11.20;99.90;;;;;;5043207;28;20235;-72
2023/12/28 12:43:37;;;;;;;7.00;2.03;;;11.20;99.90;;;;;;5042392;28;20178;-71
2023/12/28 12:46:04;;;;;;;5.63;1.90;;;11.20;99.90;;;;;;5042577;28;20424;-72
2023/12/28 12:48:30;;;;;;;8.13;1.67;;;11.20;99.90;;;;;;5043355;28;20235;-73
2023/12/28 12:50:55;;;;;;;4.87;1.73;;;11.20;99.90;;;;;;5043061;28;20919;-72